This is the latest recevied weather packets stored in our database for station/object DL2GFH-3. If no packets are shown the sender has not sent any weather packets the latest 10 day(s).
| Time | Temp. | Humidity | Pressure | Rain* | Wind** | Luminosity | Snow |
|---|---|---|---|---|---|---|---|
| 1777097617 | 26.11° C | 16% | 1017.8 hPa | - | - | - | - |
| 1777096712 | 25.56° C | 17% | 1017.8 hPa | - | - | - | - |
| 1777095806 | 25° C | 17% | 1017.9 hPa | - | - | - | - |
| 1777094901 | 23.33° C | 18% | 1018 hPa | - | - | - | - |
| 1777093996 | 21.67° C | 19% | 1017.9 hPa | - | - | - | - |
| 1777093090 | 23.33° C | 18% | 1017.8 hPa | - | - | - | - |
| 1777092185 | 23.33° C | 18% | 1017.7 hPa | - | - | - | - |
| 1777091279 | 23.33° C | 18% | 1017.7 hPa | - | - | - | - |
| 1777090374 | 22.22° C | 19% | 1017.7 hPa | - | - | - | - |
| 1777089469 | 21.11° C | 21% | 1017.7 hPa | - | - | - | - |
| 1777088563 | 20.56° C | 21% | 1017.8 hPa | - | - | - | - |
| 1777087658 | 22.78° C | 19% | 1017.7 hPa | - | - | - | - |
| 1777086752 | 24.44° C | 17% | 1017.7 hPa | - | - | - | - |
| 1777085847 | 23.89° C | 18% | 1017.8 hPa | - | - | - | - |
| 1777084942 | 19.44° C | 23% | 1018.1 hPa | - | - | - | - |
| 1777084036 | 15.56° C | 27% | 1018.3 hPa | - | - | - | - |
| 1777083131 | 16.11° C | 27% | 1018.3 hPa | - | - | - | - |
| 1777082225 | 16.11° C | 27% | 1018.3 hPa | - | - | - | - |
| 1777081320 | 16.67° C | 27% | 1018.3 hPa | - | - | - | - |
| 1777080414 | 16.67° C | 26% | 1018.3 hPa | - | - | - | - |
| 1777079509 | 17.78° C | 26% | 1018.4 hPa | - | - | - | - |
| 1777078604 | 18.33° C | 25% | 1018.4 hPa | - | - | - | - |
| 1777077698 | 19.44° C | 24% | 1018.4 hPa | - | - | - | - |
| 1777076793 | 20.56° C | 23% | 1018.6 hPa | - | - | - | - |
| 1777075887 | 17.22° C | 27% | 1018.7 hPa | - | - | - | - |
* Rain since midnight (hover to see other rain measurements)
** Current wind speed in m/s (hover to see current wind gust speed)